This is the latest recevied weather packets stored in our database for station/object KB9ZGZ. If no packets are shown the sender has not sent any weather packets the latest 10 day(s).
| Time | Temp. | Humidity | Pressure | Rain* | Wind** | Luminosity | Snow |
|---|---|---|---|---|---|---|---|
| 1777439701 | 13.89° C | 89% | 1009.5 hPa | 0.51 mm | - | - | - |
| 1777438801 | 13.89° C | 88% | 1009.6 hPa | 0.51 mm | - | - | - |
| 1777437958 | 13.89° C | 88% | 1009.6 hPa | 0.51 mm | - | - | - |
| 1777437107 | 14.44° C | 87% | 1009.8 hPa | 0.51 mm | - | - | - |
| 1777436157 | 14.44° C | 87% | 1009.8 hPa | 0.25 mm | - | - | - |
| 1777435264 | 14.44° C | 86% | 1009.7 hPa | 0.25 mm | - | - | - |
| 1777434357 | 14.44° C | 86% | 1009.6 hPa | 0.25 mm | - | - | - |
| 1777433455 | 14.44° C | 85% | 1009.1 hPa | 0.25 mm | - | - | - |
| 1777432554 | 14.44° C | 84% | 1008.7 hPa | 0.25 mm | - | - | - |
| 1777431659 | 14.44° C | 86% | 1008.5 hPa | 0.25 mm | - | - | - |
| 1777430751 | 14.44° C | 87% | 1008.6 hPa | 0.25 mm | - | - | - |
| 1777429850 | 13.89° C | 87% | 1008.8 hPa | 0.25 mm | - | - | - |
| 1777428967 | 13.89° C | 86% | 1009 hPa | 0.25 mm | - | - | - |
| 1777428049 | 13.89° C | 85% | 1008.6 hPa | 0.25 mm | - | - | - |
| 1777427146 | 13.89° C | 85% | 1008.8 hPa | 0.25 mm | - | - | - |
| 1777426245 | 13.89° C | 84% | 1008.9 hPa | 0.25 mm | - | - | - |
| 1777425348 | 13.89° C | 82% | 1008.5 hPa | 0.25 mm | - | - | - |
| 1777424445 | 15° C | 80% | 1007.7 hPa | 0.25 mm | - | - | - |
| 1777423542 | 15.56° C | 77% | 1007.4 hPa | 0.25 mm | - | - | - |
| 1777422639 | 16.11° C | 75% | 1007.4 hPa | 0.25 mm | - | - | - |
| 1777421736 | 16.11° C | 73% | 1007.4 hPa | 0.25 mm | - | - | - |
| 1777420836 | 16.67° C | 73% | 1007.4 hPa | 0.25 mm | - | - | - |
| 1777419935 | 16.67° C | 72% | 1007.9 hPa | 0.25 mm | - | - | - |
| 1777419038 | 16.67° C | 76% | 1009.5 hPa | 0.25 mm | - | - | - |
| 1777418134 | 16.11° C | 75% | 1010.1 hPa | 0.25 mm | - | - | - |
* Rain since midnight (hover to see other rain measurements)
** Current wind speed in m/s (hover to see current wind gust speed)